sensor_id;sensor_type;location;lat;lon;timestamp;temperature;humidity
55634;DHT22;41504;53.162;6.788;2023-04-25T00:00:27;7.10;90.40
55634;DHT22;41504;53.162;6.788;2023-04-25T00:02:53;7.10;89.90
55634;DHT22;41504;53.162;6.788;2023-04-25T00:05:19;7.10;90.00
55634;DHT22;41504;53.162;6.788;2023-04-25T00:07:45;7.10;90.20
55634;DHT22;41504;53.162;6.788;2023-04-25T00:10:11;7.10;90.10
55634;DHT22;41504;53.162;6.788;2023-04-25T00:12:38;7.10;90.10
55634;DHT22;41504;53.162;6.788;2023-04-25T00:15:04;7.10;89.80
55634;DHT22;41504;53.162;6.788;2023-04-25T00:17:30;7.10;89.70
55634;DHT22;41504;53.162;6.788;2023-04-25T00:19:56;7.10;89.90
55634;DHT22;41504;53.162;6.788;2023-04-25T00:22:23;7.00;90.10
55634;DHT22;41504;53.162;6.788;2023-04-25T00:24:49;7.00;89.20
55634;DHT22;41504;53.162;6.788;2023-04-25T00:27:15;7.00;89.00
55634;DHT22;41504;53.162;6.788;2023-04-25T00:29:41;7.00;88.30
55634;DHT22;41504;53.162;6.788;2023-04-25T00:32:07;7.00;88.40
55634;DHT22;41504;53.162;6.788;2023-04-25T00:34:32;7.00;87.70
55634;DHT22;41504;53.162;6.788;2023-04-25T00:36:58;7.00;87.20
55634;DHT22;41504;53.162;6.788;2023-04-25T00:39:27;7.00;88.00
55634;DHT22;41504;53.162;6.788;2023-04-25T00:41:54;7.00;87.90
55634;DHT22;41504;53.162;6.788;2023-04-25T00:44:20;6.90;87.80
55634;DHT22;41504;53.162;6.788;2023-04-25T00:46:47;7.00;86.50
55634;DHT22;41504;53.162;6.788;2023-04-25T00:49:13;7.00;84.30
55634;DHT22;41504;53.162;6.788;2023-04-25T00:51:41;6.90;83.70
55634;DHT22;41504;53.162;6.788;2023-04-25T00:54:07;7.00;83.60
55634;DHT22;41504;53.162;6.788;2023-04-25T00:56:36;6.70;84.40
55634;DHT22;41504;53.162;6.788;2023-04-25T00:59:01;6.60;84.30
55634;DHT22;41504;53.162;6.788;2023-04-25T01:01:27;6.40;84.50
55634;DHT22;41504;53.162;6.788;2023-04-25T01:03:54;6.40;85.40
55634;DHT22;41504;53.162;6.788;2023-04-25T01:06:20;6.40;85.00
55634;DHT22;41504;53.162;6.788;2023-04-25T01:08:45;6.40;84.70
55634;DHT22;41504;53.162;6.788;2023-04-25T01:11:11;6.40;83.70
55634;DHT22;41504;53.162;6.788;2023-04-25T01:13:37;6.40;84.90
55634;DHT22;41504;53.162;6.788;2023-04-25T01:16:03;6.40;84.60
55634;DHT22;41504;53.162;6.788;2023-04-25T01:18:29;6.40;84.70
55634;DHT22;41504;53.162;6.788;2023-04-25T01:20:55;6.50;84.20
55634;DHT22;41504;53.162;6.788;2023-04-25T01:23:22;6.50;84.40
55634;DHT22;41504;53.162;6.788;2023-04-25T01:25:50;6.50;83.60
55634;DHT22;41504;53.162;6.788;2023-04-25T01:28:16;6.60;83.40
55634;DHT22;41504;53.162;6.788;2023-04-25T01:30:43;6.60;83.80
55634;DHT22;41504;53.162;6.788;2023-04-25T01:33:09;6.60;83.90
55634;DHT22;41504;53.162;6.788;2023-04-25T01:35:34;6.60;83.10
55634;DHT22;41504;53.162;6.788;2023-04-25T01:38:00;6.60;81.80
55634;DHT22;41504;53.162;6.788;2023-04-25T01:40:27;6.60;82.10
55634;DHT22;41504;53.162;6.788;2023-04-25T01:42:54;6.60;81.70
55634;DHT22;41504;53.162;6.788;2023-04-25T01:45:20;6.50;81.70
55634;DHT22;41504;53.162;6.788;2023-04-25T01:47:46;6.60;80.90
55634;DHT22;41504;53.162;6.788;2023-04-25T01:50:16;6.60;81.00
55634;DHT22;41504;53.162;6.788;2023-04-25T01:52:43;6.60;80.80
55634;DHT22;41504;53.162;6.788;2023-04-25T01:55:09;6.60;81.20
55634;DHT22;41504;53.162;6.788;2023-04-25T01:57:35;6.60;80.50
55634;DHT22;41504;53.162;6.788;2023-04-25T02:00:03;6.50;81.10
55634;DHT22;41504;53.162;6.788;2023-04-25T02:02:29;6.50;80.60
55634;DHT22;41504;53.162;6.788;2023-04-25T02:04:55;6.50;81.00
55634;DHT22;41504;53.162;6.788;2023-04-25T02:07:21;6.50;80.30
55634;DHT22;41504;53.162;6.788;2023-04-25T02:09:47;6.50;79.90
55634;DHT22;41504;53.162;6.788;2023-04-25T02:12:13;6.50;79.60
55634;DHT22;41504;53.162;6.788;2023-04-25T02:14:39;6.50;80.50
55634;DHT22;41504;53.162;6.788;2023-04-25T02:17:05;6.50;80.10
55634;DHT22;41504;53.162;6.788;2023-04-25T02:19:31;6.50;80.40
55634;DHT22;41504;53.162;6.788;2023-04-25T02:21:56;6.60;80.30
55634;DHT22;41504;53.162;6.788;2023-04-25T02:24:23;6.60;80.50
55634;DHT22;41504;53.162;6.788;2023-04-25T02:26:49;6.60;81.40
55634;DHT22;41504;53.162;6.788;2023-04-25T02:29:15;6.50;81.50
55634;DHT22;41504;53.162;6.788;2023-04-25T02:31:41;6.40;81.60
55634;DHT22;41504;53.162;6.788;2023-04-25T02:34:07;6.40;81.60
55634;DHT22;41504;53.162;6.788;2023-04-25T02:36:32;6.40;81.60
55634;DHT22;41504;53.162;6.788;2023-04-25T02:39:01;6.40;82.00
55634;DHT22;41504;53.162;6.788;2023-04-25T02:41:28;6.30;82.40
55634;DHT22;41504;53.162;6.788;2023-04-25T02:43:53;6.30;82.70
55634;DHT22;41504;53.162;6.788;2023-04-25T02:46:20;6.40;83.00
55634;DHT22;41504;53.162;6.788;2023-04-25T02:48:45;6.30;82.90
55634;DHT22;41504;53.162;6.788;2023-04-25T02:51:11;6.50;83.20
55634;DHT22;41504;53.162;6.788;2023-04-25T02:53:40;6.30;83.40
55634;DHT22;41504;53.162;6.788;2023-04-25T02:56:08;6.30;83.80
55634;DHT22;41504;53.162;6.788;2023-04-25T02:58:34;6.60;83.60
55634;DHT22;41504;53.162;6.788;2023-04-25T03:01:00;6.40;83.40
55634;DHT22;41504;53.162;6.788;2023-04-25T03:03:26;6.20;83.70
55634;DHT22;41504;53.162;6.788;2023-04-25T03:05:51;6.10;84.10
55634;DHT22;41504;53.162;6.788;2023-04-25T03:08:18;6.00;84.70
55634;DHT22;41504;53.162;6.788;2023-04-25T03:10:44;6.00;85.30
55634;DHT22;41504;53.162;6.788;2023-04-25T03:13:10;6.00;85.70
55634;DHT22;41504;53.162;6.788;2023-04-25T03:15:37;5.90;86.20
55634;DHT22;41504;53.162;6.788;2023-04-25T03:18:03;5.90;86.50
55634;DHT22;41504;53.162;6.788;2023-04-25T03:20:29;5.80;86.90
55634;DHT22;41504;53.162;6.788;2023-04-25T03:22:55;5.80;87.20
55634;DHT22;41504;53.162;6.788;2023-04-25T03:25:20;5.80;87.40
55634;DHT22;41504;53.162;6.788;2023-04-25T03:27:49;5.80;87.60
55634;DHT22;41504;53.162;6.788;2023-04-25T03:30:15;5.70;88.00
55634;DHT22;41504;53.162;6.788;2023-04-25T03:32:40;5.70;88.20
55634;DHT22;41504;53.162;6.788;2023-04-25T03:35:06;5.70;88.30
55634;DHT22;41504;53.162;6.788;2023-04-25T03:37:32;5.70;88.30
55634;DHT22;41504;53.162;6.788;2023-04-25T03:39:58;5.70;88.40
55634;DHT22;41504;53.162;6.788;2023-04-25T03:42:23;5.70;88.50
55634;DHT22;41504;53.162;6.788;2023-04-25T03:44:51;5.70;88.40
55634;DHT22;41504;53.162;6.788;2023-04-25T03:47:16;5.70;88.30
55634;DHT22;41504;53.162;6.788;2023-04-25T03:49:42;5.60;88.00
55634;DHT22;41504;53.162;6.788;2023-04-25T03:52:08;5.70;87.90
55634;DHT22;41504;53.162;6.788;2023-04-25T03:54:34;5.60;87.40
55634;DHT22;41504;53.162;6.788;2023-04-25T03:57:00;5.60;87.10
55634;DHT22;41504;53.162;6.788;2023-04-25T03:59:25;5.60;87.00
55634;DHT22;41504;53.162;6.788;2023-04-25T04:01:52;5.60;86.60
55634;DHT22;41504;53.162;6.788;2023-04-25T04:04:17;5.60;86.00
55634;DHT22;41504;53.162;6.788;2023-04-25T04:06:43;5.60;86.00
55634;DHT22;41504;53.162;6.788;2023-04-25T04:09:09;5.60;85.30
55634;DHT22;41504;53.162;6.788;2023-04-25T04:11:37;5.70;84.40
55634;DHT22;41504;53.162;6.788;2023-04-25T04:14:05;5.60;83.50
55634;DHT22;41504;53.162;6.788;2023-04-25T04:16:31;5.70;84.20
55634;DHT22;41504;53.162;6.788;2023-04-25T04:18:57;5.60;84.40
55634;DHT22;41504;53.162;6.788;2023-04-25T04:21:23;5.50;84.50
55634;DHT22;41504;53.162;6.788;2023-04-25T04:23:48;5.50;84.30
55634;DHT22;41504;53.162;6.788;2023-04-25T04:26:14;5.40;84.50
55634;DHT22;41504;53.162;6.788;2023-04-25T04:28:43;5.40;85.00
55634;DHT22;41504;53.162;6.788;2023-04-25T04:31:10;5.40;85.00
55634;DHT22;41504;53.162;6.788;2023-04-25T04:33:36;5.30;85.10
55634;DHT22;41504;53.162;6.788;2023-04-25T04:36:03;6.00;85.60
55634;DHT22;41504;53.162;6.788;2023-04-25T04:38:31;5.30;85.40
55634;DHT22;41504;53.162;6.788;2023-04-25T04:40:57;5.30;85.60
55634;DHT22;41504;53.162;6.788;2023-04-25T04:43:23;5.30;85.60
55634;DHT22;41504;53.162;6.788;2023-04-25T04:45:49;5.30;85.20
55634;DHT22;41504;53.162;6.788;2023-04-25T04:48:16;5.30;85.40
55634;DHT22;41504;53.162;6.788;2023-04-25T04:50:45;5.30;85.50
55634;DHT22;41504;53.162;6.788;2023-04-25T04:53:11;5.40;85.60
55634;DHT22;41504;53.162;6.788;2023-04-25T04:55:37;5.30;85.60
55634;DHT22;41504;53.162;6.788;2023-04-25T04:58:03;5.30;85.80
55634;DHT22;41504;53.162;6.788;2023-04-25T05:00:28;5.30;85.90
55634;DHT22;41504;53.162;6.788;2023-04-25T05:02:55;5.30;85.80
55634;DHT22;41504;53.162;6.788;2023-04-25T05:05:21;5.30;85.80
55634;DHT22;41504;53.162;6.788;2023-04-25T05:07:47;5.40;85.90
55634;DHT22;41504;53.162;6.788;2023-04-25T05:10:13;5.40;85.90
55634;DHT22;41504;53.162;6.788;2023-04-25T05:12:39;5.40;85.90
55634;DHT22;41504;53.162;6.788;2023-04-25T05:15:05;5.50;85.90
55634;DHT22;41504;53.162;6.788;2023-04-25T05:17:31;5.60;86.00
55634;DHT22;41504;53.162;6.788;2023-04-25T05:19:58;5.60;85.90
55634;DHT22;41504;53.162;6.788;2023-04-25T05:22:23;5.60;85.50
55634;DHT22;41504;53.162;6.788;2023-04-25T05:24:49;5.70;84.70
55634;DHT22;41504;53.162;6.788;2023-04-25T05:27:17;5.80;84.40
55634;DHT22;41504;53.162;6.788;2023-04-25T05:29:43;5.70;83.70
55634;DHT22;41504;53.162;6.788;2023-04-25T05:32:09;5.60;84.40
55634;DHT22;41504;53.162;6.788;2023-04-25T05:34:35;5.40;85.20
55634;DHT22;41504;53.162;6.788;2023-04-25T05:37:02;5.30;85.80
55634;DHT22;41504;53.162;6.788;2023-04-25T05:39:28;5.40;86.10
55634;DHT22;41504;53.162;6.788;2023-04-25T05:41:54;5.30;86.20
55634;DHT22;41504;53.162;6.788;2023-04-25T05:44:20;5.40;86.30
55634;DHT22;41504;53.162;6.788;2023-04-25T05:46:46;5.30;86.20
55634;DHT22;41504;53.162;6.788;2023-04-25T05:49:11;5.40;86.10
55634;DHT22;41504;53.162;6.788;2023-04-25T05:51:37;5.40;85.60
55634;DHT22;41504;53.162;6.788;2023-04-25T05:54:03;5.50;85.10
55634;DHT22;41504;53.162;6.788;2023-04-25T05:56:29;5.60;85.10
55634;DHT22;41504;53.162;6.788;2023-04-25T05:58:55;5.60;84.20
55634;DHT22;41504;53.162;6.788;2023-04-25T06:01:22;5.80;83.90
55634;DHT22;41504;53.162;6.788;2023-04-25T06:03:48;5.90;83.50
55634;DHT22;41504;53.162;6.788;2023-04-25T06:06:14;5.90;82.60
55634;DHT22;41504;53.162;6.788;2023-04-25T06:08:40;6.00;82.60
55634;DHT22;41504;53.162;6.788;2023-04-25T06:11:06;6.00;81.30
55634;DHT22;41504;53.162;6.788;2023-04-25T06:13:32;5.90;81.90
55634;DHT22;41504;53.162;6.788;2023-04-25T06:15:58;5.60;83.50
55634;DHT22;41504;53.162;6.788;2023-04-25T06:18:23;5.40;84.40
55634;DHT22;41504;53.162;6.788;2023-04-25T06:20:49;5.30;85.10
55634;DHT22;41504;53.162;6.788;2023-04-25T06:23:15;5.30;85.40
55634;DHT22;41504;53.162;6.788;2023-04-25T06:25:40;5.40;85.40
55634;DHT22;41504;53.162;6.788;2023-04-25T06:28:09;5.30;85.00
55634;DHT22;41504;53.162;6.788;2023-04-25T06:30:34;5.50;85.20
55634;DHT22;41504;53.162;6.788;2023-04-25T06:33:00;5.60;84.80
55634;DHT22;41504;53.162;6.788;2023-04-25T06:35:26;5.60;84.60
55634;DHT22;41504;53.162;6.788;2023-04-25T06:37:51;5.70;84.60
55634;DHT22;41504;53.162;6.788;2023-04-25T06:40:17;5.70;84.20
55634;DHT22;41504;53.162;6.788;2023-04-25T06:42:43;5.70;84.40
55634;DHT22;41504;53.162;6.788;2023-04-25T06:45:09;5.80;84.40
55634;DHT22;41504;53.162;6.788;2023-04-25T06:47:35;5.90;83.70
55634;DHT22;41504;53.162;6.788;2023-04-25T06:50:00;6.00;82.50
55634;DHT22;41504;53.162;6.788;2023-04-25T06:52:26;6.20;82.10
55634;DHT22;41504;53.162;6.788;2023-04-25T06:54:52;6.30;81.30
55634;DHT22;41504;53.162;6.788;2023-04-25T06:57:17;6.50;79.60
55634;DHT22;41504;53.162;6.788;2023-04-25T06:59:43;6.60;78.80
55634;DHT22;41504;53.162;6.788;2023-04-25T07:02:10;6.70;77.90
55634;DHT22;41504;53.162;6.788;2023-04-25T07:04:35;6.90;77.40
55634;DHT22;41504;53.162;6.788;2023-04-25T07:07:01;7.10;76.50
55634;DHT22;41504;53.162;6.788;2023-04-25T07:09:29;7.20;75.40
55634;DHT22;41504;53.162;6.788;2023-04-25T07:11:55;7.30;74.90
55634;DHT22;41504;53.162;6.788;2023-04-25T07:14:22;7.30;77.30
55634;DHT22;41504;53.162;6.788;2023-04-25T07:16:47;7.20;79.20
55634;DHT22;41504;53.162;6.788;2023-04-25T07:19:13;7.00;78.90
55634;DHT22;41504;53.162;6.788;2023-04-25T07:21:39;6.90;79.60
55634;DHT22;41504;53.162;6.788;2023-04-25T07:24:05;6.60;80.50
55634;DHT22;41504;53.162;6.788;2023-04-25T07:26:31;6.60;81.10
55634;DHT22;41504;53.162;6.788;2023-04-25T07:28:57;6.60;81.40
55634;DHT22;41504;53.162;6.788;2023-04-25T07:31:22;6.70;81.20
55634;DHT22;41504;53.162;6.788;2023-04-25T07:33:48;6.80;81.10
55634;DHT22;41504;53.162;6.788;2023-04-25T07:36:14;6.70;80.90
55634;DHT22;41504;53.162;6.788;2023-04-25T07:38:41;6.90;80.50
55634;DHT22;41504;53.162;6.788;2023-04-25T07:41:06;6.90;79.70
55634;DHT22;41504;53.162;6.788;2023-04-25T07:43:32;7.00;79.60
55634;DHT22;41504;53.162;6.788;2023-04-25T07:45:58;7.10;79.80
55634;DHT22;41504;53.162;6.788;2023-04-25T07:48:24;7.30;79.40
55634;DHT22;41504;53.162;6.788;2023-04-25T07:50:49;7.50;78.50
55634;DHT22;41504;53.162;6.788;2023-04-25T07:53:15;7.70;77.00
55634;DHT22;41504;53.162;6.788;2023-04-25T07:55:43;7.80;75.40
55634;DHT22;41504;53.162;6.788;2023-04-25T07:58:10;7.80;74.80
55634;DHT22;41504;53.162;6.788;2023-04-25T08:00:36;7.80;73.70
55634;DHT22;41504;53.162;6.788;2023-04-25T08:03:02;7.80;73.00
55634;DHT22;41504;53.162;6.788;2023-04-25T08:05:28;7.70;72.50
55634;DHT22;41504;53.162;6.788;2023-04-25T08:07:54;7.60;73.70
55634;DHT22;41504;53.162;6.788;2023-04-25T08:10:20;7.50;72.90
55634;DHT22;41504;53.162;6.788;2023-04-25T08:12:48;7.50;74.30
55634;DHT22;41504;53.162;6.788;2023-04-25T08:15:14;7.40;74.70
55634;DHT22;41504;53.162;6.788;2023-04-25T08:17:40;7.40;75.00
55634;DHT22;41504;53.162;6.788;2023-04-25T08:20:06;7.40;74.80
55634;DHT22;41504;53.162;6.788;2023-04-25T08:22:32;7.50;75.20
55634;DHT22;41504;53.162;6.788;2023-04-25T08:24:59;7.60;74.60
55634;DHT22;41504;53.162;6.788;2023-04-25T08:27:25;7.70;73.90
55634;DHT22;41504;53.162;6.788;2023-04-25T08:29:51;7.80;73.40
55634;DHT22;41504;53.162;6.788;2023-04-25T08:32:26;7.90;74.20
55634;DHT22;41504;53.162;6.788;2023-04-25T08:34:51;7.50;77.90
55634;DHT22;41504;53.162;6.788;2023-04-25T08:37:19;7.00;80.70
55634;DHT22;41504;53.162;6.788;2023-04-25T08:39:46;6.60;81.10
55634;DHT22;41504;53.162;6.788;2023-04-25T08:42:15;6.30;81.90
55634;DHT22;41504;53.162;6.788;2023-04-25T08:44:41;6.00;82.20
55634;DHT22;41504;53.162;6.788;2023-04-25T08:47:09;5.80;83.70
55634;DHT22;41504;53.162;6.788;2023-04-25T08:49:39;5.80;84.30
55634;DHT22;41504;53.162;6.788;2023-04-25T08:52:09;5.90;84.20
55634;DHT22;41504;53.162;6.788;2023-04-25T08:54:37;6.00;84.30
55634;DHT22;41504;53.162;6.788;2023-04-25T08:57:06;6.10;83.80
55634;DHT22;41504;53.162;6.788;2023-04-25T08:59:35;6.20;83.40
55634;DHT22;41504;53.162;6.788;2023-04-25T09:02:04;6.40;82.90
55634;DHT22;41504;53.162;6.788;2023-04-25T09:04:31;6.60;82.30
55634;DHT22;41504;53.162;6.788;2023-04-25T09:06:57;6.80;79.50
55634;DHT22;41504;53.162;6.788;2023-04-25T09:09:24;7.10;78.90
55634;DHT22;41504;53.162;6.788;2023-04-25T09:11:49;7.00;78.50
55634;DHT22;41504;53.162;6.788;2023-04-25T09:14:17;7.10;77.70
55634;DHT22;41504;53.162;6.788;2023-04-25T09:21:55;7.40;75.60
55634;DHT22;41504;53.162;6.788;2023-04-25T09:24:51;7.70;74.80
55634;DHT22;41504;53.162;6.788;2023-04-25T09:27:21;7.70;74.20
55634;DHT22;41504;53.162;6.788;2023-04-25T09:29:59;7.90;73.70
55634;DHT22;41504;53.162;6.788;2023-04-25T09:32:28;8.10;72.90
55634;DHT22;41504;53.162;6.788;2023-04-25T09:34:55;8.30;71.60
55634;DHT22;41504;53.162;6.788;2023-04-25T09:37:27;8.40;73.10
55634;DHT22;41504;53.162;6.788;2023-04-25T09:39:57;8.50;72.10
55634;DHT22;41504;53.162;6.788;2023-04-25T09:42:28;8.50;72.20
55634;DHT22;41504;53.162;6.788;2023-04-25T09:44:57;8.60;70.80
55634;DHT22;41504;53.162;6.788;2023-04-25T09:47:25;8.70;70.80
55634;DHT22;41504;53.162;6.788;2023-04-25T09:49:52;8.50;69.30
55634;DHT22;41504;53.162;6.788;2023-04-25T09:52:20;8.10;70.00
55634;DHT22;41504;53.162;6.788;2023-04-25T09:54:48;7.70;73.10
55634;DHT22;41504;53.162;6.788;2023-04-25T09:57:19;7.60;73.80
55634;DHT22;41504;53.162;6.788;2023-04-25T09:59:47;7.50;73.00
55634;DHT22;41504;53.162;6.788;2023-04-25T10:02:17;7.70;73.40
55634;DHT22;41504;53.162;6.788;2023-04-25T10:04:50;7.90;73.50
55634;DHT22;41504;53.162;6.788;2023-04-25T10:07:25;8.10;72.10
55634;DHT22;41504;53.162;6.788;2023-04-25T10:09:59;8.10;72.30
55634;DHT22;41504;53.162;6.788;2023-04-25T10:12:27;8.20;71.90
55634;DHT22;41504;53.162;6.788;2023-04-25T10:14:58;8.40;68.60
55634;DHT22;41504;53.162;6.788;2023-04-25T10:17:29;8.40;68.60
55634;DHT22;41504;53.162;6.788;2023-04-25T10:19:57;8.30;67.60
55634;DHT22;41504;53.162;6.788;2023-04-25T10:22:32;8.80;66.80
55634;DHT22;41504;53.162;6.788;2023-04-25T10:25:00;8.90;65.20
55634;DHT22;41504;53.162;6.788;2023-04-25T10:27:32;9.00;66.10
55634;DHT22;41504;53.162;6.788;2023-04-25T10:32:32;8.60;68.80
55634;DHT22;41504;53.162;6.788;2023-04-25T10:35:11;7.80;71.40
55634;DHT22;41504;53.162;6.788;2023-04-25T10:37:36;7.30;76.10
55634;DHT22;41504;53.162;6.788;2023-04-25T10:40:09;6.90;79.00
55634;DHT22;41504;53.162;6.788;2023-04-25T10:42:35;6.70;80.60
55634;DHT22;41504;53.162;6.788;2023-04-25T10:45:04;6.60;81.70
55634;DHT22;41504;53.162;6.788;2023-04-25T10:47:36;6.60;80.30
55634;DHT22;41504;53.162;6.788;2023-04-25T10:50:17;6.70;80.70
55634;DHT22;41504;53.162;6.788;2023-04-25T10:52:43;6.90;79.30
55634;DHT22;41504;53.162;6.788;2023-04-25T10:55:10;7.20;78.10
55634;DHT22;41504;53.162;6.788;2023-04-25T10:57:38;7.50;75.40
55634;DHT22;41504;53.162;6.788;2023-04-25T11:00:19;7.70;73.40
55634;DHT22;41504;53.162;6.788;2023-04-25T11:02:47;8.00;72.80
55634;DHT22;41504;53.162;6.788;2023-04-25T11:05:32;8.30;71.80
55634;DHT22;41504;53.162;6.788;2023-04-25T11:07:58;8.50;71.00
55634;DHT22;41504;53.162;6.788;2023-04-25T11:10:36;8.70;72.00
55634;DHT22;41504;53.162;6.788;2023-04-25T11:13:03;8.70;70.90
55634;DHT22;41504;53.162;6.788;2023-04-25T11:15:31;8.60;69.30
55634;DHT22;41504;53.162;6.788;2023-04-25T11:17:57;8.30;68.80
55634;DHT22;41504;53.162;6.788;2023-04-25T11:20:28;8.10;69.40
55634;DHT22;41504;53.162;6.788;2023-04-25T11:22:57;8.00;68.90
55634;DHT22;41504;53.162;6.788;2023-04-25T11:25:27;7.90;70.00
55634;DHT22;41504;53.162;6.788;2023-04-25T11:27:58;7.90;69.80
55634;DHT22;41504;53.162;6.788;2023-04-25T11:30:25;8.10;70.00
55634;DHT22;41504;53.162;6.788;2023-04-25T11:32:51;8.40;69.60
55634;DHT22;41504;53.162;6.788;2023-04-25T11:35:19;8.60;69.40
55634;DHT22;41504;53.162;6.788;2023-04-25T11:37:48;8.90;68.40
55634;DHT22;41504;53.162;6.788;2023-04-25T11:40:14;9.20;66.30
55634;DHT22;41504;53.162;6.788;2023-04-25T11:42:44;9.30;63.60
55634;DHT22;41504;53.162;6.788;2023-04-25T11:45:10;9.20;62.00
55634;DHT22;41504;53.162;6.788;2023-04-25T11:47:39;9.20;64.10
55634;DHT22;41504;53.162;6.788;2023-04-25T11:50:07;9.30;63.30
55634;DHT22;41504;53.162;6.788;2023-04-25T11:55:10;9.50;61.60
55634;DHT22;41504;53.162;6.788;2023-04-25T11:57:39;9.60;59.40
55634;DHT22;41504;53.162;6.788;2023-04-25T12:00:17;9.60;60.10
55634;DHT22;41504;53.162;6.788;2023-04-25T12:02:45;9.50;61.10
55634;DHT22;41504;53.162;6.788;2023-04-25T12:05:14;9.40;61.80
55634;DHT22;41504;53.162;6.788;2023-04-25T12:07:43;9.40;63.60
55634;DHT22;41504;53.162;6.788;2023-04-25T12:10:14;9.30;62.80
55634;DHT22;41504;53.162;6.788;2023-04-25T12:12:45;9.30;62.40
55634;DHT22;41504;53.162;6.788;2023-04-25T12:15:18;9.60;61.80
55634;DHT22;41504;53.162;6.788;2023-04-25T12:17:51;9.60;61.70
55634;DHT22;41504;53.162;6.788;2023-04-25T12:20:26;9.70;60.70
55634;DHT22;41504;53.162;6.788;2023-04-25T12:22:52;9.70;60.40
55634;DHT22;41504;53.162;6.788;2023-04-25T12:25:40;9.70;59.60
55634;DHT22;41504;53.162;6.788;2023-04-25T12:28:24;9.60;59.50
55634;DHT22;41504;53.162;6.788;2023-04-25T12:31:03;9.80;60.00
55634;DHT22;41504;53.162;6.788;2023-04-25T12:33:36;10.00;59.90
55634;DHT22;41504;53.162;6.788;2023-04-25T12:36:11;10.00;60.90
55634;DHT22;41504;53.162;6.788;2023-04-25T12:38:40;10.50;61.20
55634;DHT22;41504;53.162;6.788;2023-04-25T12:41:07;9.40;62.70
55634;DHT22;41504;53.162;6.788;2023-04-25T12:43:33;9.30;63.50
55634;DHT22;41504;53.162;6.788;2023-04-25T12:46:01;9.30;62.40
55634;DHT22;41504;53.162;6.788;2023-04-25T12:48:30;9.50;63.10
55634;DHT22;41504;53.162;6.788;2023-04-25T12:50:56;9.60;62.90
55634;DHT22;41504;53.162;6.788;2023-04-25T12:53:23;9.60;60.90
55634;DHT22;41504;53.162;6.788;2023-04-25T12:55:54;9.50;61.80
55634;DHT22;41504;53.162;6.788;2023-04-25T12:58:20;9.30;62.50
55634;DHT22;41504;53.162;6.788;2023-04-25T13:00:46;9.10;62.70
55634;DHT22;41504;53.162;6.788;2023-04-25T13:03:12;9.10;63.80
55634;DHT22;41504;53.162;6.788;2023-04-25T13:05:38;9.20;63.00
55634;DHT22;41504;53.162;6.788;2023-04-25T13:08:04;9.30;62.90
55634;DHT22;41504;53.162;6.788;2023-04-25T13:10:30;9.40;63.50
55634;DHT22;41504;53.162;6.788;2023-04-25T13:12:56;9.50;60.40
55634;DHT22;41504;53.162;6.788;2023-04-25T13:15:22;9.60;60.80
55634;DHT22;41504;53.162;6.788;2023-04-25T13:17:48;9.90;60.70
55634;DHT22;41504;53.162;6.788;2023-04-25T13:20:14;10.10;58.80
55634;DHT22;41504;53.162;6.788;2023-04-25T13:22:42;10.20;58.90
55634;DHT22;41504;53.162;6.788;2023-04-25T13:25:11;10.30;57.00
55634;DHT22;41504;53.162;6.788;2023-04-25T13:27:37;10.10;59.10
55634;DHT22;41504;53.162;6.788;2023-04-25T13:30:08;9.80;60.20
55634;DHT22;41504;53.162;6.788;2023-04-25T13:32:34;9.60;61.00
55634;DHT22;41504;53.162;6.788;2023-04-25T13:35:10;10.10;62.10
55634;DHT22;41504;53.162;6.788;2023-04-25T13:37:36;9.60;62.60
55634;DHT22;41504;53.162;6.788;2023-04-25T13:40:10;9.80;58.90
55634;DHT22;41504;53.162;6.788;2023-04-25T13:42:40;9.70;57.20
55634;DHT22;41504;53.162;6.788;2023-04-25T13:45:09;9.70;58.40
55634;DHT22;41504;53.162;6.788;2023-04-25T13:47:42;9.70;59.60
55634;DHT22;41504;53.162;6.788;2023-04-25T13:50:10;9.50;60.00
55634;DHT22;41504;53.162;6.788;2023-04-25T13:52:36;9.20;61.20
55634;DHT22;41504;53.162;6.788;2023-04-25T13:55:02;9.00;62.40
55634;DHT22;41504;53.162;6.788;2023-04-25T13:57:33;8.90;62.50
55634;DHT22;41504;53.162;6.788;2023-04-25T13:59:59;9.00;61.50
55634;DHT22;41504;53.162;6.788;2023-04-25T14:02:30;9.20;60.10
55634;DHT22;41504;53.162;6.788;2023-04-25T14:04:56;9.50;59.30
55634;DHT22;41504;53.162;6.788;2023-04-25T14:07:21;9.60;59.30
55634;DHT22;41504;53.162;6.788;2023-04-25T14:09:47;9.80;59.20
55634;DHT22;41504;53.162;6.788;2023-04-25T14:12:13;9.90;57.90
55634;DHT22;41504;53.162;6.788;2023-04-25T14:14:39;9.80;58.20
55634;DHT22;41504;53.162;6.788;2023-04-25T14:17:04;9.70;57.50
55634;DHT22;41504;53.162;6.788;2023-04-25T14:19:32;9.80;58.40
55634;DHT22;41504;53.162;6.788;2023-04-25T14:21:57;10.00;57.20
55634;DHT22;41504;53.162;6.788;2023-04-25T14:24:23;10.20;56.90
55634;DHT22;41504;53.162;6.788;2023-04-25T14:26:49;10.20;56.30
55634;DHT22;41504;53.162;6.788;2023-04-25T14:29:15;10.10;55.50
55634;DHT22;41504;53.162;6.788;2023-04-25T14:31:41;10.10;56.10
55634;DHT22;41504;53.162;6.788;2023-04-25T14:34:07;10.00;56.60
55634;DHT22;41504;53.162;6.788;2023-04-25T14:36:36;9.80;57.80
55634;DHT22;41504;53.162;6.788;2023-04-25T14:39:02;9.60;59.10
55634;DHT22;41504;53.162;6.788;2023-04-25T14:41:28;9.40;60.60
55634;DHT22;41504;53.162;6.788;2023-04-25T14:43:54;9.30;60.10
55634;DHT22;41504;53.162;6.788;2023-04-25T14:46:21;9.30;59.30
55634;DHT22;41504;53.162;6.788;2023-04-25T14:48:47;9.50;57.70
55634;DHT22;41504;53.162;6.788;2023-04-25T14:51:16;9.60;56.80
55634;DHT22;41504;53.162;6.788;2023-04-25T14:53:41;9.50;56.30
55634;DHT22;41504;53.162;6.788;2023-04-25T14:56:09;9.40;57.50
55634;DHT22;41504;53.162;6.788;2023-04-25T14:58:35;9.40;57.70
55634;DHT22;41504;53.162;6.788;2023-04-25T15:01:01;9.60;57.60
55634;DHT22;41504;53.162;6.788;2023-04-25T15:03:27;9.40;58.20
55634;DHT22;41504;53.162;6.788;2023-04-25T15:05:54;9.20;61.40
55634;DHT22;41504;53.162;6.788;2023-04-25T15:08:23;8.90;63.20
55634;DHT22;41504;53.162;6.788;2023-04-25T15:10:49;8.40;63.90
55634;DHT22;41504;53.162;6.788;2023-04-25T15:13:19;8.20;65.10
55634;DHT22;41504;53.162;6.788;2023-04-25T15:15:44;8.20;64.60
55634;DHT22;41504;53.162;6.788;2023-04-25T15:18:20;8.40;63.40
55634;DHT22;41504;53.162;6.788;2023-04-25T15:20:48;8.70;61.70
55634;DHT22;41504;53.162;6.788;2023-04-25T15:23:14;9.00;61.90
55634;DHT22;41504;53.162;6.788;2023-04-25T15:25:40;9.20;62.30
55634;DHT22;41504;53.162;6.788;2023-04-25T15:28:05;9.40;61.80
55634;DHT22;41504;53.162;6.788;2023-04-25T15:30:31;9.50;62.30
55634;DHT22;41504;53.162;6.788;2023-04-25T15:32:57;9.60;62.20
55634;DHT22;41504;53.162;6.788;2023-04-25T15:35:22;9.50;63.00
55634;DHT22;41504;53.162;6.788;2023-04-25T15:37:48;9.30;63.70
55634;DHT22;41504;53.162;6.788;2023-04-25T15:40:16;8.90;65.20
55634;DHT22;41504;53.162;6.788;2023-04-25T15:45:13;8.70;67.80
55634;DHT22;41504;53.162;6.788;2023-04-25T15:47:40;8.80;65.80
55634;DHT22;41504;53.162;6.788;2023-04-25T15:50:07;8.90;63.30
55634;DHT22;41504;53.162;6.788;2023-04-25T15:52:37;9.10;61.30
55634;DHT22;41504;53.162;6.788;2023-04-25T15:55:06;9.20;61.40
55634;DHT22;41504;53.162;6.788;2023-04-25T15:57:34;9.20;60.70